Time;durP1;ratioP1;P1;durP2;ratioP2;P2;SDS_P1;SDS_P2;PMS_P1;PMS_P2;Temp;Humidity;BMP_temperature;BMP_pressure;BME280_temperature;BME280_humidity;BME280_pressure;Samples;Min_cycle;Max_cycle;Signal;HPM_P1;HPM_P2
2022/02/09 00:04:45;;;;;;;;;;;;;;;;;;7393997;19;2033;-44
2022/02/09 00:09:26;;;;;;;;;;;;;;;;;;7393760;19;2541;-43
2022/02/09 00:14:47;;;;;;;;;;;;;;;;;;7392439;19;2117;-41
2022/02/09 00:23:26;;;;;;;;;;;;;;;;;;7390782;19;1935;-40
2022/02/09 00:39:44;;;;;;;;;;;;;;;;;;7389810;19;2130;-40
2022/02/09 00:42:27;;;;;;;;;;;;;;;;;;7392398;19;2223;-41
2022/02/09 01:51:21;;;;;;;;;;;;;;;;;;7389199;19;1954;-42
2022/02/09 01:56:35;;;;;;;;;;;;;;;;;;7390006;19;2189;-42
2022/02/09 01:59:04;;;;;;;;;;;;;;;;;;7390189;19;2164;-42
2022/02/09 02:01:31;;;;;;;;;;;;;;;;;;7389702;19;2093;-42
2022/02/09 02:03:58;;;;;;;;;;;;;;;;;;7390508;19;2088;-45
2022/02/09 02:06:25;;;;;;;;;;;;;;;;;;7388055;19;2242;-43
2022/02/09 02:08:54;;;;;;;;;;;;;;;;;;7389934;19;2245;-45
2022/02/09 02:11:27;;;;;;;;;;;;;;;;;;7386957;19;2261;-43
2022/02/09 02:16:41;;;;;;;;;;;;;;;;;;7390123;19;2603;-41
2022/02/09 02:19:20;;;;;;;;;;;;;;;;;;7389435;19;2046;-42
2022/02/09 02:43:57;;;;;;;;;;;;;;;;;;7388999;19;2144;-42
2022/02/09 02:46:28;;;;;;;;;;;;;;;;;;7388686;19;2079;-44
2022/02/09 03:08:21;;;;;;;;;;;;;;;;;;7395297;19;2168;-42
2022/02/09 03:13:27;;;;;;;;;;;;;;;;;;7395248;19;2104;-44
2022/02/09 03:16:06;;;;;;;;;;;;;;;;;;7394195;19;2183;-41
2022/02/09 03:21:35;;;;;;;;;;;;;;;;;;7395592;19;2131;-42
2022/02/09 03:24:11;;;;;;;;;;;;;;;;;;7396081;19;2200;-42
2022/02/09 03:26:54;;;;;;;;;;;;;;;;;;7394725;19;2133;-43
2022/02/09 03:43:41;;;;;;;;;;;;;;;;;;7394436;19;2149;-43
2022/02/09 03:48:55;;;;;;;;;;;;;;;;;;7394215;19;2210;-41
2022/02/09 03:54:25;;;;;;;;;;;;;;;;;;7397898;19;2281;-40
2022/02/09 03:57:00;;;;;;;;;;;;;;;;;;7394314;19;2201;-42
2022/02/09 03:59:32;;;;;;;;;;;;;;;;;;7394343;19;2189;-43
2022/02/09 04:02:00;;;;;;;;;;;;;;;;;;7394188;19;2194;-46
2022/02/09 04:04:27;;;;;;;;;;;;;;;;;;7393044;19;2109;-45
2022/02/09 04:06:55;;;;;;;;;;;;;;;;;;7391534;19;2208;-43
2022/02/09 04:09:28;;;;;;;;;;;;;;;;;;7394138;19;2112;-47
2022/02/09 04:12:03;;;;;;;;;;;;;;;;;;7391826;19;2069;-42
2022/02/09 04:14:51;;;;;;;;;;;;;;;;;;7392148;19;2270;-43
2022/02/09 04:17:32;;;;;;;;;;;;;;;;;;7393488;19;2158;-42
2022/02/09 04:23:02;;;;;;;;;;;;;;;;;;7392794;19;2123;-40
2022/02/09 04:38:54;;;;;;;;;;;;;;;;;;7391755;19;2261;-42
2022/02/09 04:41:55;;;;;;;;;;;;;;;;;;7392322;19;2372;-43
2022/02/09 04:47:26;;;;;;;;;;;;;;;;;;7391805;19;2221;-42
2022/02/09 04:50:07;;;;;;;;;;;;;;;;;;7392343;19;2153;-43
2022/02/09 04:52:54;;;;;;;;;;;;;;;;;;7390885;19;2094;-42
2022/02/09 05:04:03;;;;;;;;;;;;;;;;;;7390384;19;2191;-42
2022/02/09 05:26:05;;;;;;;;;;;;;;;;;;7390955;19;2095;-42
2022/02/09 05:28:32;;;;;;;;;;;;;;;;;;7391023;19;2073;-42
2022/02/09 05:30:59;;;;;;;;;;;;;;;;;;7390416;19;1916;-42
2022/02/09 05:33:26;;;;;;;;;;;;;;;;;;7390928;19;2166;-42
2022/02/09 05:35:53;;;;;;;;;;;;;;;;;;7390750;19;2186;-43
2022/02/09 05:38:21;;;;;;;;;;;;;;;;;;7390600;19;2127;-40
2022/02/09 05:40:48;;;;;;;;;;;;;;;;;;7390843;19;2093;-43
2022/02/09 05:43:16;;;;;;;;;;;;;;;;;;7390592;19;2236;-46
2022/02/09 05:51:17;;;;;;;;;;;;;;;;;;7389322;19;2682;-43
2022/02/09 05:59:04;;;;;;;;;;;;;;;;;;7390442;19;2201;-41
2022/02/09 06:01:33;;;;;;;;;;;;;;;;;;7390191;19;2158;-41
2022/02/09 06:04:00;;;;;;;;;;;;;;;;;;7389769;19;2169;-42
2022/02/09 06:06:28;;;;;;;;;;;;;;;;;;7390237;19;2154;-41
2022/02/09 06:09:00;;;;;;;;;;;;;;;;;;7389312;19;2061;-41
2022/02/09 06:11:34;;;;;;;;;;;;;;;;;;7389484;19;2296;-42
2022/02/09 06:14:40;;;;;;;;;;;;;;;;;;7389387;19;2168;-42
2022/02/09 06:19:43;;;;;;;;;;;;;;;;;;7389392;19;2174;-45
2022/02/09 06:22:10;;;;;;;;;;;;;;;;;;7389829;19;2069;-42
2022/02/09 06:24:41;;;;;;;;;;;;;;;;;;7389674;19;2106;-45
2022/02/09 06:27:10;;;;;;;;;;;;;;;;;;7394228;19;2133;-43
2022/02/09 06:29:39;;;;;;;;;;;;;;;;;;7396949;19;2092;-44
2022/02/09 06:32:08;;;;;;;;;;;;;;;;;;7395524;19;2224;-40
2022/02/09 06:34:39;;;;;;;;;;;;;;;;;;7396934;19;2161;-45
2022/02/09 06:37:17;;;;;;;;;;;;;;;;;;7396374;19;2170;-41
2022/02/09 06:39:47;;;;;;;;;;;;;;;;;;7396838;19;2084;-49
2022/02/09 06:42:24;;;;;;;;;;;;;;;;;;7396181;19;2397;-42
2022/02/09 06:44:52;;;;;;;;;;;;;;;;;;7399040;19;2287;-42
2022/02/09 06:47:24;;;;;;;;;;;;;;;;;;7394529;19;2167;-41
2022/02/09 06:50:05;;;;;;;;;;;;;;;;;;7396316;19;2070;-42
2022/02/09 06:52:32;;;;;;;;;;;;;;;;;;7394622;19;2227;-42
2022/02/09 07:00:36;;;;;;;;;;;;;;;;;;7394091;19;2372;-42
2022/02/09 07:03:04;;;;;;;;;;;;;;;;;;7396385;19;2198;-42
2022/02/09 07:05:31;;;;;;;;;;;;;;;;;;7393726;19;2286;-43
2022/02/09 07:07:58;;;;;;;;;;;;;;;;;;7395814;19;2188;-43
2022/02/09 07:10:26;;;;;;;;;;;;;;;;;;7395008;19;2101;-42
2022/02/09 07:12:53;;;;;;;;;;;;;;;;;;7393810;19;2161;-44
2022/02/09 07:15:28;;;;;;;;;;;;;;;;;;7393162;19;2255;-41
2022/02/09 07:17:56;;;;;;;;;;;;;;;;;;7395432;19;2240;-44
2022/02/09 07:20:29;;;;;;;;;;;;;;;;;;7394748;19;2221;-41
2022/02/09 07:22:57;;;;;;;;;;;;;;;;;;7394475;19;2074;-41
2022/02/09 07:25:32;;;;;;;;;;;;;;;;;;7395393;19;2188;-42
2022/02/09 07:28:03;;;;;;;;;;;;;;;;;;7395189;19;1947;-43
2022/02/09 07:30:31;;;;;;;;;;;;;;;;;;7394515;19;2166;-42
2022/02/09 07:33:00;;;;;;;;;;;;;;;;;;7392834;19;2061;-42
2022/02/09 07:35:29;;;;;;;;;;;;;;;;;;7394559;19;2055;-42
2022/02/09 07:37:56;;;;;;;;;;;;;;;;;;7392636;19;2160;-43
2022/02/09 07:40:24;;;;;;;;;;;;;;;;;;7394051;19;2108;-41
2022/02/09 07:42:59;;;;;;;;;;;;;;;;;;7394232;19;1919;-41
2022/02/09 07:46:12;;;;;;;;;;;;;;;;;;7397077;19;2022;-41
2022/02/09 07:51:26;;;;;;;;;;;;;;;;;;7394261;19;2173;-42
2022/02/09 07:54:02;;;;;;;;;;;;;;;;;;7394322;19;2194;-42
2022/02/09 07:56:31;;;;;;;;;;;;;;;;;;7393434;19;2169;-41
2022/02/09 07:58:58;;;;;;;;;;;;;;;;;;7394339;19;2448;-41
2022/02/09 08:01:25;;;;;;;;;;;;;;;;;;7393211;19;1946;-41
2022/02/09 08:03:53;;;;;;;;;;;;;;;;;;7394390;19;2090;-41
2022/02/09 08:06:24;;;;;;;;;;;;;;;;;;7394261;19;2110;-41
2022/02/09 08:08:53;;;;;;;;;;;;;;;;;;7394100;19;2073;-43
2022/02/09 08:33:07;;;;;;;;;;;;;;;;;;7392077;19;2137;-41
2022/02/09 08:35:34;;;;;;;;;;;;;;;;;;7392957;19;1912;-41
2022/02/09 08:38:02;;;;;;;;;;;;;;;;;;7392809;19;2148;-41
2022/02/09 08:40:29;;;;;;;;;;;;;;;;;;7391819;19;2235;-49
2022/02/09 08:42:58;;;;;;;;;;;;;;;;;;7392339;19;2180;-45
2022/02/09 08:45:25;;;;;;;;;;;;;;;;;;7396009;19;2063;-42
2022/02/09 08:47:56;;;;;;;;;;;;;;;;;;7392247;19;2099;-42
2022/02/09 08:50:24;;;;;;;;;;;;;;;;;;7391837;19;2170;-42
2022/02/09 08:52:52;;;;;;;;;;;;;;;;;;7391285;19;2256;-42
2022/02/09 08:55:19;;;;;;;;;;;;;;;;;;7392760;19;2187;-42
2022/02/09 08:57:47;;;;;;;;;;;;;;;;;;7392101;19;2186;-42
2022/02/09 09:00:27;;;;;;;;;;;;;;;;;;7393194;19;2057;-42
2022/02/09 09:05:46;;;;;;;;;;;;;;;;;;7392195;19;2270;-43
2022/02/09 09:11:57;;;;;;;;;;;;;;;;;;7392206;19;2177;-43
2022/02/09 10:03:55;;;;;;;;;;;;;;;;;;7397618;19;2184;-47
2022/02/09 10:34:01;;;;;;;;;;;;;;;;;;7394620;19;2108;-41
2022/02/09 10:36:29;;;;;;;;;;;;;;;;;;7397190;19;2183;-46
2022/02/09 10:39:12;;;;;;;;;;;;;;;;;;7396866;19;2127;-42
2022/02/09 10:41:51;;;;;;;;;;;;;;;;;;7394739;19;2142;-45
2022/02/09 10:44:25;;;;;;;;;;;;;;;;;;7397946;19;2332;-41
2022/02/09 10:46:52;;;;;;;;;;;;;;;;;;7396200;19;2112;-42
2022/02/09 10:49:22;;;;;;;;;;;;;;;;;;7396247;19;2059;-42
2022/02/09 10:52:16;;;;;;;;;;;;;;;;;;7396388;19;2033;-41
2022/02/09 10:54:39;;;;;;;;;;;;;;;;;;7396426;19;2191;-41
2022/02/09 10:57:10;;;;;;;;;;;;;;;;;;7396091;19;2000;-42
2022/02/09 10:59:40;;;;;;;;;;;;;;;;;;7396098;19;2076;-41
2022/02/09 11:02:09;;;;;;;;;;;;;;;;;;7395439;19;2071;-41
2022/02/09 11:04:36;;;;;;;;;;;;;;;;;;7396311;19;2221;-42
2022/02/09 11:07:05;;;;;;;;;;;;;;;;;;7396128;19;2153;-43
2022/02/09 11:09:32;;;;;;;;;;;;;;;;;;7395988;19;2097;-44
2022/02/09 11:12:00;;;;;;;;;;;;;;;;;;7395480;19;2463;-42
2022/02/09 11:14:27;;;;;;;;;;;;;;;;;;7391169;19;2186;-50
2022/02/09 11:17:06;;;;;;;;;;;;;;;;;;7396114;19;2082;-42
2022/02/09 11:19:36;;;;;;;;;;;;;;;;;;7398882;19;2216;-42
2022/02/09 11:22:11;;;;;;;;;;;;;;;;;;7395241;19;2028;-42
2022/02/09 11:24:45;;;;;;;;;;;;;;;;;;7393266;19;1985;-41
2022/02/09 11:27:24;;;;;;;;;;;;;;;;;;7394873;19;2074;-41
2022/02/09 11:30:20;;;;;;;;;;;;;;;;;;7394918;19;2056;-41
2022/02/09 11:33:26;;;;;;;;;;;;;;;;;;7395115;19;2217;-42
2022/02/09 11:39:05;;;;;;;;;;;;;;;;;;7390834;19;1965;-41
2022/02/09 11:41:43;;;;;;;;;;;;;;;;;;7393892;19;2209;-40
2022/02/09 11:44:31;;;;;;;;;;;;;;;;;;7395367;19;2235;-41
2022/02/09 11:47:17;;;;;;;;;;;;;;;;;;7394624;19;2236;-42
2022/02/09 12:10:06;;;;;;;;;;;;;;;;;;7394435;19;2126;-41
2022/02/09 12:12:11;;;;;;;;;;;;;;;;;;7392844;19;2087;-41
2022/02/09 12:14:57;;;;;;;;;;;;;;;;;;7391238;19;1869;-49
2022/02/09 12:20:03;;;;;;;;;;;;;;;;;;7396542;19;2197;-46
2022/02/09 12:22:44;;;;;;;;;;;;;;;;;;7393174;19;2186;-41
2022/02/09 12:25:11;;;;;;;;;;;;;;;;;;7391216;19;2208;-41
2022/02/09 12:27:39;;;;;;;;;;;;;;;;;;7393466;19;1936;-41
2022/02/09 12:30:10;;;;;;;;;;;;;;;;;;7393193;19;2150;-42
2022/02/09 12:32:38;;;;;;;;;;;;;;;;;;7392185;19;2198;-42
2022/02/09 12:35:09;;;;;;;;;;;;;;;;;;7392592;19;2144;-41
2022/02/09 12:37:38;;;;;;;;;;;;;;;;;;7392829;19;2151;-42
2022/02/09 12:40:06;;;;;;;;;;;;;;;;;;7393254;19;2169;-41
2022/02/09 12:42:35;;;;;;;;;;;;;;;;;;7392957;19;2188;-42
2022/02/09 12:45:13;;;;;;;;;;;;;;;;;;7394812;19;2200;-42
2022/02/09 12:47:42;;;;;;;;;;;;;;;;;;7392303;19;2136;-42
2022/02/09 12:50:10;;;;;;;;;;;;;;;;;;7392483;19;2153;-42
2022/02/09 12:52:39;;;;;;;;;;;;;;;;;;7391956;19;2172;-41
2022/02/09 12:55:17;;;;;;;;;;;;;;;;;;7390367;19;2268;-41
2022/02/09 12:57:51;;;;;;;;;;;;;;;;;;7392541;19;2127;-41
2022/02/09 13:00:23;;;;;;;;;;;;;;;;;;7392309;19;2275;-42
2022/02/09 13:02:51;;;;;;;;;;;;;;;;;;7392495;19;1994;-43
2022/02/09 13:05:18;;;;;;;;;;;;;;;;;;7392954;19;2181;-42
2022/02/09 13:07:56;;;;;;;;;;;;;;;;;;7391460;19;2152;-45
2022/02/09 13:10:31;;;;;;;;;;;;;;;;;;7392071;19;2219;-41
2022/02/09 13:13:07;;;;;;;;;;;;;;;;;;7391663;19;1896;-41
2022/02/09 13:15:44;;;;;;;;;;;;;;;;;;7390510;19;2228;-44
2022/02/09 13:26:34;;;;;;;;;;;;;;;;;;7390974;19;2156;-43
2022/02/09 14:11:22;;;;;;;;;;;;;;;;;;7389979;19;2256;-44
2022/02/09 14:59:35;;;;;;;;;;;;;;;;;;7396090;19;2069;-41
2022/02/09 15:02:07;;;;;;;;;;;;;;;;;;7396495;19;2221;-41
2022/02/09 15:07:25;;;;;;;;;;;;;;;;;;7396220;19;2188;-44
2022/02/09 15:10:06;;;;;;;;;;;;;;;;;;7395683;19;2137;-41
2022/02/09 15:12:54;;;;;;;;;;;;;;;;;;7395129;19;2096;-41
2022/02/09 15:23:09;;;;;;;;;;;;;;;;;;7395254;19;1940;-50
2022/02/09 15:25:36;;;;;;;;;;;;;;;;;;7395151;19;2055;-42
2022/02/09 15:28:05;;;;;;;;;;;;;;;;;;7395847;19;2216;-43
2022/02/09 15:33:32;;;;;;;;;;;;;;;;;;7393169;19;2036;-44
2022/02/09 15:36:35;;;;;;;;;;;;;;;;;;7394205;19;2159;-42
2022/02/09 15:39:02;;;;;;;;;;;;;;;;;;7394632;19;2175;-41
2022/02/09 15:41:41;;;;;;;;;;;;;;;;;;7393972;19;2236;-41
2022/02/09 16:16:36;;;;;;;;;;;;;;;;;;7393870;19;2155;-42
2022/02/09 16:22:53;;;;;;;;;;;;;;;;;;7389249;19;2150;-43
2022/02/09 16:46:23;;;;;;;;;;;;;;;;;;7392837;19;2097;-44
2022/02/09 16:51:32;;;;;;;;;;;;;;;;;;7393095;19;2168;-44
2022/02/09 17:21:13;;;;;;;;;;;;;;;;;;7390019;19;2087;-43
2022/02/09 17:23:41;;;;;;;;;;;;;;;;;;7389964;19;2220;-42
2022/02/09 17:26:08;;;;;;;;;;;;;;;;;;7391485;19;2157;-48
2022/02/09 17:28:36;;;;;;;;;;;;;;;;;;7390925;19;2238;-44
2022/02/09 17:31:17;;;;;;;;;;;;;;;;;;7390915;19;2171;-42
2022/02/09 17:53:21;;;;;;;;;;;;;;;;;;7391918;19;2206;-44
2022/02/09 17:58:19;;;;;;;;;;;;;;;;;;7388471;19;2153;-45
2022/02/09 18:00:50;;;;;;;;;;;;;;;;;;7389390;19;2471;-42
2022/02/09 18:03:19;;;;;;;;;;;;;;;;;;7389586;19;2072;-42
2022/02/09 18:05:51;;;;;;;;;;;;;;;;;;7387622;19;2441;-43
2022/02/09 18:08:24;;;;;;;;;;;;;;;;;;7389686;19;2179;-41
2022/02/09 18:45:30;;;;;;;;;;;;;;;;;;7399854;19;2159;-41
2022/02/09 18:48:28;;;;;;;;;;;;;;;;;;7396401;19;2099;-42
2022/02/09 19:02:20;;;;;;;;;;;;;;;;;;7395939;19;2144;-44
2022/02/09 19:04:48;;;;;;;;;;;;;;;;;;7395665;19;2184;-49
2022/02/09 19:19:03;;;;;;;;;;;;;;;;;;7395904;19;2237;-41
2022/02/09 19:32:58;;;;;;;;;;;;;;;;;;7395657;19;2113;-43
2022/02/09 19:49:14;;;;;;;;;;;;;;;;;;7393030;19;2098;-44
2022/02/09 19:52:07;;;;;;;;;;;;;;;;;;7394760;19;1876;-46
2022/02/09 19:57:15;;;;;;;;;;;;;;;;;;7394384;19;2184;-41
2022/02/09 19:59:43;;;;;;;;;;;;;;;;;;7393866;19;2092;-49
2022/02/09 20:02:13;;;;;;;;;;;;;;;;;;7394782;19;2039;-45
2022/02/09 20:04:41;;;;;;;;;;;;;;;;;;7393835;19;2183;-46
2022/02/09 20:07:08;;;;;;;;;;;;;;;;;;7394960;19;2121;-49
2022/02/09 20:09:36;;;;;;;;;;;;;;;;;;7394056;19;2147;-48
2022/02/09 20:12:03;;;;;;;;;;;;;;;;;;7393205;19;2109;-51
2022/02/09 20:14:32;;;;;;;;;;;;;;;;;;7392351;19;2132;-44
2022/02/09 20:16:59;;;;;;;;;;;;;;;;;;7393884;19;2203;-49
2022/02/09 20:19:26;;;;;;;;;;;;;;;;;;7393514;19;2283;-43
2022/02/09 20:21:54;;;;;;;;;;;;;;;;;;7393115;19;2114;-46
2022/02/09 20:24:21;;;;;;;;;;;;;;;;;;7391881;19;2125;-47
2022/02/09 20:26:52;;;;;;;;;;;;;;;;;;7392952;19;2197;-47
2022/02/09 20:29:24;;;;;;;;;;;;;;;;;;7393787;19;2137;-43
2022/02/09 20:32:09;;;;;;;;;;;;;;;;;;7392731;19;2199;-44
2022/02/09 20:34:47;;;;;;;;;;;;;;;;;;7392051;19;2013;-42
2022/02/09 20:37:17;;;;;;;;;;;;;;;;;;7392345;19;2086;-42
2022/02/09 20:39:56;;;;;;;;;;;;;;;;;;7393353;19;2196;-44
2022/02/09 20:42:24;;;;;;;;;;;;;;;;;;7392676;19;2084;-44
2022/02/09 20:45:30;;;;;;;;;;;;;;;;;;7394796;19;2273;-47
2022/02/09 20:47:46;;;;;;;;;;;;;;;;;;7391806;19;2109;-45
2022/02/09 20:50:13;;;;;;;;;;;;;;;;;;7392270;19;2057;-44
2022/02/09 20:52:40;;;;;;;;;;;;;;;;;;7393023;19;2141;-45
2022/02/09 20:55:09;;;;;;;;;;;;;;;;;;7392021;19;2150;-41
2022/02/09 20:57:37;;;;;;;;;;;;;;;;;;7392013;19;2069;-46
2022/02/09 21:00:11;;;;;;;;;;;;;;;;;;7391612;19;2074;-42
2022/02/09 21:08:17;;;;;;;;;;;;;;;;;;7390510;19;2085;-47
2022/02/09 21:21:19;;;;;;;;;;;;;;;;;;7390867;19;2455;-41
2022/02/09 21:53:36;;;;;;;;;;;;;;;;;;7391064;19;2163;-42
2022/02/09 21:58:46;;;;;;;;;;;;;;;;;;7396828;19;2161;-46
2022/02/09 22:01:38;;;;;;;;;;;;;;;;;;7398976;19;2242;-41
2022/02/09 22:28:54;;;;;;;;;;;;;;;;;;7397014;19;2223;-41
2022/02/09 22:47:55;;;;;;;;;;;;;;;;;;7395813;19;2048;-43
2022/02/09 22:55:42;;;;;;;;;;;;;;;;;;7395084;19;2117;-44
2022/02/09 22:58:13;;;;;;;;;;;;;;;;;;7394539;19;2194;-42
2022/02/09 23:01:12;;;;;;;;;;;;;;;;;;7395493;19;2188;-42
2022/02/09 23:04:23;;;;;;;;;;;;;;;;;;7396230;19;2235;-42
2022/02/09 23:28:12;;;;;;;;;;;;;;;;;;7397160;19;2151;-43
